sensor_id;sensor_type;location;lat;lon;timestamp;temperature;humidity
32215;DHT22;18708;53.124;23.190;2024-03-23T00:53:31;7.80;99.90
32215;DHT22;18708;53.124;23.190;2024-03-23T00:55:57;7.80;99.90
32215;DHT22;18708;53.124;23.190;2024-03-23T00:58:23;7.70;99.90
32215;DHT22;18708;53.124;23.190;2024-03-23T01:00:50;7.80;99.90
32215;DHT22;18708;53.124;23.190;2024-03-23T01:03:16;7.70;99.90
32215;DHT22;18708;53.124;23.190;2024-03-23T01:05:42;7.80;99.90
32215;DHT22;18708;53.124;23.190;2024-03-23T01:08:07;7.80;99.90
32215;DHT22;18708;53.124;23.190;2024-03-23T01:10:33;7.70;99.90
32215;DHT22;18708;53.124;23.190;2024-03-23T01:12:59;7.80;99.90
32215;DHT22;18708;53.124;23.190;2024-03-23T01:15:24;7.70;99.90
32215;DHT22;18708;53.124;23.190;2024-03-23T01:17:50;7.70;99.90
32215;DHT22;18708;53.124;23.190;2024-03-23T01:20:16;7.70;99.90
32215;DHT22;18708;53.124;23.190;2024-03-23T01:22:42;7.70;99.90
32215;DHT22;18708;53.124;23.190;2024-03-23T01:25:07;7.70;99.90
32215;DHT22;18708;53.124;23.190;2024-03-23T01:27:33;7.70;99.90
32215;DHT22;18708;53.124;23.190;2024-03-23T01:29:59;7.70;99.90
32215;DHT22;18708;53.124;23.190;2024-03-23T01:32:25;7.70;99.90
32215;DHT22;18708;53.124;23.190;2024-03-23T01:34:51;7.70;99.90
32215;DHT22;18708;53.124;23.190;2024-03-23T01:37:16;7.70;99.90
32215;DHT22;18708;53.124;23.190;2024-03-23T01:39:42;7.70;99.90
32215;DHT22;18708;53.124;23.190;2024-03-23T01:42:08;7.70;99.90
32215;DHT22;18708;53.124;23.190;2024-03-23T01:44:33;7.70;99.90
32215;DHT22;18708;53.124;23.190;2024-03-23T01:46:59;7.70;99.90
32215;DHT22;18708;53.124;23.190;2024-03-23T01:49:25;7.70;99.90
32215;DHT22;18708;53.124;23.190;2024-03-23T01:51:53;7.70;99.90
32215;DHT22;18708;53.124;23.190;2024-03-23T01:54:19;7.70;99.90
32215;DHT22;18708;53.124;23.190;2024-03-23T01:56:45;7.70;99.90
32215;DHT22;18708;53.124;23.190;2024-03-23T01:59:11;7.70;99.90
32215;DHT22;18708;53.124;23.190;2024-03-23T02:01:39;7.70;99.90
32215;DHT22;18708;53.124;23.190;2024-03-23T02:04:05;7.70;99.90
32215;DHT22;18708;53.124;23.190;2024-03-23T02:06:31;7.70;99.90
32215;DHT22;18708;53.124;23.190;2024-03-23T02:08:56;7.70;99.90
32215;DHT22;18708;53.124;23.190;2024-03-23T02:11:22;7.70;99.90
32215;DHT22;18708;53.124;23.190;2024-03-23T02:13:48;7.70;99.90
32215;DHT22;18708;53.124;23.190;2024-03-23T02:16:14;7.70;99.90
32215;DHT22;18708;53.124;23.190;2024-03-23T02:18:40;7.70;99.90
32215;DHT22;18708;53.124;23.190;2024-03-23T02:21:05;7.80;99.90
32215;DHT22;18708;53.124;23.190;2024-03-23T02:23:31;7.80;99.90
32215;DHT22;18708;53.124;23.190;2024-03-23T02:25:57;7.80;99.90
32215;DHT22;18708;53.124;23.190;2024-03-23T02:28:22;7.80;99.90
32215;DHT22;18708;53.124;23.190;2024-03-23T02:30:52;7.80;99.90
32215;DHT22;18708;53.124;23.190;2024-03-23T02:33:20;7.80;99.90
32215;DHT22;18708;53.124;23.190;2024-03-23T02:35:45;7.80;99.90
32215;DHT22;18708;53.124;23.190;2024-03-23T02:38:11;7.80;99.90
32215;DHT22;18708;53.124;23.190;2024-03-23T02:40:37;7.80;99.90
32215;DHT22;18708;53.124;23.190;2024-03-23T02:43:03;7.80;99.90
32215;DHT22;18708;53.124;23.190;2024-03-23T02:45:29;7.80;99.90
32215;DHT22;18708;53.124;23.190;2024-03-23T02:47:55;7.80;99.90
32215;DHT22;18708;53.124;23.190;2024-03-23T02:50:22;7.80;99.90
32215;DHT22;18708;53.124;23.190;2024-03-23T02:52:48;7.80;99.90
32215;DHT22;18708;53.124;23.190;2024-03-23T02:55:14;7.90;99.90
32215;DHT22;18708;53.124;23.190;2024-03-23T02:57:40;7.80;99.90
32215;DHT22;18708;53.124;23.190;2024-03-23T03:00:07;7.90;99.90
32215;DHT22;18708;53.124;23.190;2024-03-23T03:02:33;7.90;99.90
32215;DHT22;18708;53.124;23.190;2024-03-23T03:04:59;7.90;99.90
32215;DHT22;18708;53.124;23.190;2024-03-23T03:07:25;7.90;99.90
32215;DHT22;18708;53.124;23.190;2024-03-23T03:09:51;7.90;99.90
32215;DHT22;18708;53.124;23.190;2024-03-23T03:12:16;7.90;99.90
32215;DHT22;18708;53.124;23.190;2024-03-23T03:14:42;7.90;99.90
32215;DHT22;18708;53.124;23.190;2024-03-23T03:17:08;7.90;99.90
32215;DHT22;18708;53.124;23.190;2024-03-23T03:19:34;7.90;99.90
32215;DHT22;18708;53.124;23.190;2024-03-23T03:21:59;7.90;99.90
32215;DHT22;18708;53.124;23.190;2024-03-23T03:24:25;7.90;99.90
32215;DHT22;18708;53.124;23.190;2024-03-23T03:26:51;7.90;99.90
32215;DHT22;18708;53.124;23.190;2024-03-23T03:29:16;7.90;99.90
32215;DHT22;18708;53.124;23.190;2024-03-23T03:31:45;8.00;99.90
32215;DHT22;18708;53.124;23.190;2024-03-23T03:34:11;7.90;99.90
32215;DHT22;18708;53.124;23.190;2024-03-23T03:36:37;7.90;99.90
32215;DHT22;18708;53.124;23.190;2024-03-23T03:39:03;7.90;99.90
32215;DHT22;18708;53.124;23.190;2024-03-23T03:41:32;8.00;99.90
32215;DHT22;18708;53.124;23.190;2024-03-23T03:43:58;7.90;99.90
32215;DHT22;18708;53.124;23.190;2024-03-23T03:46:27;7.90;99.90
32215;DHT22;18708;53.124;23.190;2024-03-23T03:48:54;7.90;99.90
32215;DHT22;18708;53.124;23.190;2024-03-23T03:51:20;8.00;99.90
32215;DHT22;18708;53.124;23.190;2024-03-23T03:53:46;8.00;99.90
32215;DHT22;18708;53.124;23.190;2024-03-23T03:56:12;8.00;99.90
32215;DHT22;18708;53.124;23.190;2024-03-23T03:58:37;8.00;99.90
32215;DHT22;18708;53.124;23.190;2024-03-23T04:01:03;8.00;99.90
32215;DHT22;18708;53.124;23.190;2024-03-23T04:03:29;8.00;99.90
32215;DHT22;18708;53.124;23.190;2024-03-23T04:05:55;8.00;99.90
32215;DHT22;18708;53.124;23.190;2024-03-23T04:08:21;8.00;99.90
32215;DHT22;18708;53.124;23.190;2024-03-23T04:10:46;8.00;99.90
32215;DHT22;18708;53.124;23.190;2024-03-23T04:13:13;8.00;99.90
32215;DHT22;18708;53.124;23.190;2024-03-23T04:15:39;8.00;99.90
32215;DHT22;18708;53.124;23.190;2024-03-23T04:18:05;8.00;99.90
32215;DHT22;18708;53.124;23.190;2024-03-23T04:20:31;8.00;99.90
32215;DHT22;18708;53.124;23.190;2024-03-23T04:22:58;8.00;99.90
32215;DHT22;18708;53.124;23.190;2024-03-23T04:25:23;8.00;99.90
32215;DHT22;18708;53.124;23.190;2024-03-23T04:27:49;8.00;99.90
32215;DHT22;18708;53.124;23.190;2024-03-23T04:30:15;8.10;99.90
32215;DHT22;18708;53.124;23.190;2024-03-23T04:32:41;8.10;99.90
32215;DHT22;18708;53.124;23.190;2024-03-23T04:35:07;8.00;99.90
32215;DHT22;18708;53.124;23.190;2024-03-23T04:37:37;8.00;99.90
32215;DHT22;18708;53.124;23.190;2024-03-23T04:40:03;8.00;99.90
32215;DHT22;18708;53.124;23.190;2024-03-23T04:42:30;8.10;99.90
32215;DHT22;18708;53.124;23.190;2024-03-23T04:44:56;8.10;99.90
32215;DHT22;18708;53.124;23.190;2024-03-23T04:47:21;8.10;99.90
32215;DHT22;18708;53.124;23.190;2024-03-23T04:49:48;8.10;99.90
32215;DHT22;18708;53.124;23.190;2024-03-23T04:52:14;8.10;99.90
32215;DHT22;18708;53.124;23.190;2024-03-23T04:54:40;8.10;99.90
32215;DHT22;18708;53.124;23.190;2024-03-23T04:57:06;8.10;99.90
32215;DHT22;18708;53.124;23.190;2024-03-23T04:59:32;8.10;99.90
32215;DHT22;18708;53.124;23.190;2024-03-23T05:01:59;8.10;99.90
32215;DHT22;18708;53.124;23.190;2024-03-23T05:04:26;8.10;99.90
32215;DHT22;18708;53.124;23.190;2024-03-23T05:06:52;8.10;99.90
32215;DHT22;18708;53.124;23.190;2024-03-23T05:09:18;8.10;99.90
32215;DHT22;18708;53.124;23.190;2024-03-23T05:11:43;8.10;99.90
32215;DHT22;18708;53.124;23.190;2024-03-23T05:14:09;8.10;99.90
32215;DHT22;18708;53.124;23.190;2024-03-23T05:16:35;8.10;99.90
32215;DHT22;18708;53.124;23.190;2024-03-23T05:19:00;8.10;99.90
32215;DHT22;18708;53.124;23.190;2024-03-23T05:21:26;8.10;99.90
32215;DHT22;18708;53.124;23.190;2024-03-23T05:23:54;8.10;99.90
32215;DHT22;18708;53.124;23.190;2024-03-23T05:26:20;8.10;99.90
32215;DHT22;18708;53.124;23.190;2024-03-23T05:28:45;8.30;99.90
32215;DHT22;18708;53.124;23.190;2024-03-23T05:31:11;8.30;99.90
32215;DHT22;18708;53.124;23.190;2024-03-23T05:33:37;8.20;99.90
32215;DHT22;18708;53.124;23.190;2024-03-23T05:36:03;8.20;99.90
32215;DHT22;18708;53.124;23.190;2024-03-23T05:38:29;8.20;99.90
32215;DHT22;18708;53.124;23.190;2024-03-23T05:40:56;8.20;99.90
32215;DHT22;18708;53.124;23.190;2024-03-23T05:43:22;8.20;99.90
32215;DHT22;18708;53.124;23.190;2024-03-23T05:48:20;8.30;99.90
32215;DHT22;18708;53.124;23.190;2024-03-23T05:50:45;8.40;99.90
32215;DHT22;18708;53.124;23.190;2024-03-23T05:53:11;8.40;99.90
32215;DHT22;18708;53.124;23.190;2024-03-23T05:55:38;8.30;99.90
32215;DHT22;18708;53.124;23.190;2024-03-23T05:58:04;8.30;99.90
32215;DHT22;18708;53.124;23.190;2024-03-23T06:00:30;8.30;99.90
32215;DHT22;18708;53.124;23.190;2024-03-23T06:02:56;8.30;99.90
32215;DHT22;18708;53.124;23.190;2024-03-23T06:05:21;8.20;99.90
32215;DHT22;18708;53.124;23.190;2024-03-23T06:07:47;8.30;99.90
32215;DHT22;18708;53.124;23.190;2024-03-23T06:10:13;8.30;99.90
32215;DHT22;18708;53.124;23.190;2024-03-23T06:12:38;8.30;99.90
32215;DHT22;18708;53.124;23.190;2024-03-23T06:15:04;8.30;99.90
32215;DHT22;18708;53.124;23.190;2024-03-23T06:17:30;8.30;99.90
32215;DHT22;18708;53.124;23.190;2024-03-23T06:19:56;8.40;99.90
32215;DHT22;18708;53.124;23.190;2024-03-23T06:22:22;8.40;99.90
32215;DHT22;18708;53.124;23.190;2024-03-23T06:24:48;8.40;99.90
32215;DHT22;18708;53.124;23.190;2024-03-23T06:27:14;8.50;99.90
32215;DHT22;18708;53.124;23.190;2024-03-23T06:29:39;8.60;99.90
32215;DHT22;18708;53.124;23.190;2024-03-23T06:32:05;8.70;99.90
32215;DHT22;18708;53.124;23.190;2024-03-23T06:34:31;8.80;99.90
32215;DHT22;18708;53.124;23.190;2024-03-23T06:36:56;9.00;99.90
32215;DHT22;18708;53.124;23.190;2024-03-23T06:39:22;9.00;99.90
32215;DHT22;18708;53.124;23.190;2024-03-23T06:41:57;9.00;99.90
32215;DHT22;18708;53.124;23.190;2024-03-23T06:44:22;9.10;99.90
32215;DHT22;18708;53.124;23.190;2024-03-23T06:46:48;9.00;99.90
32215;DHT22;18708;53.124;23.190;2024-03-23T06:49:17;9.00;99.90
32215;DHT22;18708;53.124;23.190;2024-03-23T06:51:42;9.00;99.90
32215;DHT22;18708;53.124;23.190;2024-03-23T06:54:08;9.00;99.90
32215;DHT22;18708;53.124;23.190;2024-03-23T06:56:34;9.00;99.90
32215;DHT22;18708;53.124;23.190;2024-03-23T06:59:00;9.10;99.90
32215;DHT22;18708;53.124;23.190;2024-03-23T07:01:25;9.00;99.90
32215;DHT22;18708;53.124;23.190;2024-03-23T07:03:51;9.10;99.90
32215;DHT22;18708;53.124;23.190;2024-03-23T07:06:17;9.20;99.90
32215;DHT22;18708;53.124;23.190;2024-03-23T07:08:42;9.20;99.90
32215;DHT22;18708;53.124;23.190;2024-03-23T07:11:08;9.20;99.90
32215;DHT22;18708;53.124;23.190;2024-03-23T07:13:34;9.30;99.90
32215;DHT22;18708;53.124;23.190;2024-03-23T07:15:59;9.20;99.90
32215;DHT22;18708;53.124;23.190;2024-03-23T07:18:25;9.20;99.90
32215;DHT22;18708;53.124;23.190;2024-03-23T07:20:58;9.20;99.90
32215;DHT22;18708;53.124;23.190;2024-03-23T07:23:26;9.20;99.90
32215;DHT22;18708;53.124;23.190;2024-03-23T07:25:59;9.20;99.90
32215;DHT22;18708;53.124;23.190;2024-03-23T07:28:25;9.20;99.90
32215;DHT22;18708;53.124;23.190;2024-03-23T07:31:05;9.10;99.90
32215;DHT22;18708;53.124;23.190;2024-03-23T07:33:31;9.10;99.90
32215;DHT22;18708;53.124;23.190;2024-03-23T07:35:58;9.10;99.90
32215;DHT22;18708;53.124;23.190;2024-03-23T07:38:27;9.10;99.90
32215;DHT22;18708;53.124;23.190;2024-03-23T07:40:52;9.10;99.90
32215;DHT22;18708;53.124;23.190;2024-03-23T07:43:28;9.20;99.90
32215;DHT22;18708;53.124;23.190;2024-03-23T07:45:54;9.20;99.90
32215;DHT22;18708;53.124;23.190;2024-03-23T07:48:21;9.20;99.90
32215;DHT22;18708;53.124;23.190;2024-03-23T07:51:02;9.30;99.90
32215;DHT22;18708;53.124;23.190;2024-03-23T07:53:29;9.30;99.90
32215;DHT22;18708;53.124;23.190;2024-03-23T07:56:03;9.40;99.90
32215;DHT22;18708;53.124;23.190;2024-03-23T07:58:29;9.50;99.90
32215;DHT22;18708;53.124;23.190;2024-03-23T08:01:01;9.60;99.90
32215;DHT22;18708;53.124;23.190;2024-03-23T08:03:28;9.60;99.90
32215;DHT22;18708;53.124;23.190;2024-03-23T08:05:54;9.70;99.90
32215;DHT22;18708;53.124;23.190;2024-03-23T08:08:20;9.70;99.90
32215;DHT22;18708;53.124;23.190;2024-03-23T08:10:54;9.80;99.90
32215;DHT22;18708;53.124;23.190;2024-03-23T08:13:20;9.80;99.90
32215;DHT22;18708;53.124;23.190;2024-03-23T08:15:45;9.90;99.90
32215;DHT22;18708;53.124;23.190;2024-03-23T08:18:12;9.90;99.90
32215;DHT22;18708;53.124;23.190;2024-03-23T08:20:39;10.00;99.90
32215;DHT22;18708;53.124;23.190;2024-03-23T08:23:08;9.90;99.90
32215;DHT22;18708;53.124;23.190;2024-03-23T08:25:36;9.90;99.90
32215;DHT22;18708;53.124;23.190;2024-03-23T08:28:02;9.90;99.90
32215;DHT22;18708;53.124;23.190;2024-03-23T08:30:28;9.90;99.90
32215;DHT22;18708;53.124;23.190;2024-03-23T08:32:53;9.80;99.90
32215;DHT22;18708;53.124;23.190;2024-03-23T08:35:19;9.80;99.90
32215;DHT22;18708;53.124;23.190;2024-03-23T08:37:45;9.80;99.90
32215;DHT22;18708;53.124;23.190;2024-03-23T08:40:11;10.00;99.90
32215;DHT22;18708;53.124;23.190;2024-03-23T08:42:37;10.10;99.90
32215;DHT22;18708;53.124;23.190;2024-03-23T08:45:03;10.20;99.90
32215;DHT22;18708;53.124;23.190;2024-03-23T08:47:28;10.20;99.90
32215;DHT22;18708;53.124;23.190;2024-03-23T08:49:54;10.50;99.90
32215;DHT22;18708;53.124;23.190;2024-03-23T08:52:20;10.70;99.90
32215;DHT22;18708;53.124;23.190;2024-03-23T08:54:48;10.70;99.90
32215;DHT22;18708;53.124;23.190;2024-03-23T08:57:14;10.70;99.90
32215;DHT22;18708;53.124;23.190;2024-03-23T08:59:40;10.70;99.90
32215;DHT22;18708;53.124;23.190;2024-03-23T09:02:05;10.50;99.90
32215;DHT22;18708;53.124;23.190;2024-03-23T09:04:31;10.60;99.90
32215;DHT22;18708;53.124;23.190;2024-03-23T09:06:57;10.90;99.90
32215;DHT22;18708;53.124;23.190;2024-03-23T09:09:24;11.00;99.90
32215;DHT22;18708;53.124;23.190;2024-03-23T09:11:50;10.80;99.90
32215;DHT22;18708;53.124;23.190;2024-03-23T09:14:15;10.40;1.00
32215;DHT22;18708;53.124;23.190;2024-03-23T09:16:41;10.60;1.00
32215;DHT22;18708;53.124;23.190;2024-03-23T09:19:07;10.80;99.90
32215;DHT22;18708;53.124;23.190;2024-03-23T09:21:33;10.90;99.90
32215;DHT22;18708;53.124;23.190;2024-03-23T09:23:58;10.60;1.00
32215;DHT22;18708;53.124;23.190;2024-03-23T09:26:24;10.50;1.00
32215;DHT22;18708;53.124;23.190;2024-03-23T09:28:50;10.80;1.00
32215;DHT22;18708;53.124;23.190;2024-03-23T09:31:15;11.10;1.00
32215;DHT22;18708;53.124;23.190;2024-03-23T09:33:41;11.30;99.90
32215;DHT22;18708;53.124;23.190;2024-03-23T09:36:08;11.30;1.00
32215;DHT22;18708;53.124;23.190;2024-03-23T09:38:34;11.20;1.00
32215;DHT22;18708;53.124;23.190;2024-03-23T09:41:00;11.00;24.70
32215;DHT22;18708;53.124;23.190;2024-03-23T09:43:26;11.20;1.00
32215;DHT22;18708;53.124;23.190;2024-03-23T09:45:52;11.30;1.00
32215;DHT22;18708;53.124;23.190;2024-03-23T09:48:19;11.10;99.90
32215;DHT22;18708;53.124;23.190;2024-03-23T09:50:45;11.00;99.90
32215;DHT22;18708;53.124;23.190;2024-03-23T09:53:12;10.90;1.00
32215;DHT22;18708;53.124;23.190;2024-03-23T09:55:42;10.90;1.00
32215;DHT22;18708;53.124;23.190;2024-03-23T09:58:13;10.80;1.00
32215;DHT22;18708;53.124;23.190;2024-03-23T10:00:39;10.70;1.00
32215;DHT22;18708;53.124;23.190;2024-03-23T10:03:05;10.80;1.00
32215;DHT22;18708;53.124;23.190;2024-03-23T10:05:32;10.50;99.90
32215;DHT22;18708;53.124;23.190;2024-03-23T10:08:02;10.50;1.00
32215;DHT22;18708;53.124;23.190;2024-03-23T10:10:42;10.60;1.00
32215;DHT22;18708;53.124;23.190;2024-03-23T10:13:08;10.70;1.00
32215;DHT22;18708;53.124;23.190;2024-03-23T10:15:35;10.90;1.00
32215;DHT22;18708;53.124;23.190;2024-03-23T10:18:20;10.80;1.00
32215;DHT22;18708;53.124;23.190;2024-03-23T10:23:35;10.80;43.80
32215;DHT22;18708;53.124;23.190;2024-03-23T10:26:21;10.60;1.00
32215;DHT22;18708;53.124;23.190;2024-03-23T10:29:01;10.50;1.00
32215;DHT22;18708;53.124;23.190;2024-03-23T10:31:33;10.60;1.00
32215;DHT22;18708;53.124;23.190;2024-03-23T10:34:02;10.60;1.00
32215;DHT22;18708;53.124;23.190;2024-03-23T10:36:29;10.70;1.00
32215;DHT22;18708;53.124;23.190;2024-03-23T10:38:55;10.70;99.90
32215;DHT22;18708;53.124;23.190;2024-03-23T10:41:27;10.40;1.00
32215;DHT22;18708;53.124;23.190;2024-03-23T10:43:53;10.40;1.00
32215;DHT22;18708;53.124;23.190;2024-03-23T10:46:20;10.20;99.90
32215;DHT22;18708;53.124;23.190;2024-03-23T10:48:46;10.30;1.00
32215;DHT22;18708;53.124;23.190;2024-03-23T10:51:14;10.20;99.90
32215;DHT22;18708;53.124;23.190;2024-03-23T10:53:40;10.20;99.90
32215;DHT22;18708;53.124;23.190;2024-03-23T10:56:06;10.10;99.90
32215;DHT22;18708;53.124;23.190;2024-03-23T10:58:39;9.90;1.00
32215;DHT22;18708;53.124;23.190;2024-03-23T11:01:06;9.70;99.90
32215;DHT22;18708;53.124;23.190;2024-03-23T11:03:36;9.60;99.90
32215;DHT22;18708;53.124;23.190;2024-03-23T11:06:06;9.70;99.90
32215;DHT22;18708;53.124;23.190;2024-03-23T11:08:39;9.80;99.90
32215;DHT22;18708;53.124;23.190;2024-03-23T11:11:17;9.70;99.90
32215;DHT22;18708;53.124;23.190;2024-03-23T11:13:45;9.70;99.90
32215;DHT22;18708;53.124;23.190;2024-03-23T11:16:21;9.60;99.90
32215;DHT22;18708;53.124;23.190;2024-03-23T11:18:47;9.60;99.90
32215;DHT22;18708;53.124;23.190;2024-03-23T11:24:16;9.70;99.90
32215;DHT22;18708;53.124;23.190;2024-03-23T11:26:42;9.60;99.90
32215;DHT22;18708;53.124;23.190;2024-03-23T11:29:11;9.50;99.90
32215;DHT22;18708;53.124;23.190;2024-03-23T11:31:50;9.40;99.90
32215;DHT22;18708;53.124;23.190;2024-03-23T11:34:16;9.50;99.90
32215;DHT22;18708;53.124;23.190;2024-03-23T11:36:43;9.60;99.90
32215;DHT22;18708;53.124;23.190;2024-03-23T11:39:16;9.60;99.90
32215;DHT22;18708;53.124;23.190;2024-03-23T11:41:53;9.60;99.90
32215;DHT22;18708;53.124;23.190;2024-03-23T11:44:21;9.70;99.90
32215;DHT22;18708;53.124;23.190;2024-03-23T11:46:47;9.70;99.90
32215;DHT22;18708;53.124;23.190;2024-03-23T11:49:26;9.80;99.90
32215;DHT22;18708;53.124;23.190;2024-03-23T11:51:54;9.80;99.90
32215;DHT22;18708;53.124;23.190;2024-03-23T11:54:21;9.80;99.90
32215;DHT22;18708;53.124;23.190;2024-03-23T11:57:03;9.80;99.90
32215;DHT22;18708;53.124;23.190;2024-03-23T12:02:10;9.70;99.90
32215;DHT22;18708;53.124;23.190;2024-03-23T12:04:37;9.70;99.90
32215;DHT22;18708;53.124;23.190;2024-03-23T12:09:39;9.70;99.90
32215;DHT22;18708;53.124;23.190;2024-03-23T12:12:07;9.70;99.90
32215;DHT22;18708;53.124;23.190;2024-03-23T12:14:35;9.60;99.90
32215;DHT22;18708;53.124;23.190;2024-03-23T12:17:14;9.70;99.90
32215;DHT22;18708;53.124;23.190;2024-03-23T12:19:41;9.60;99.90
32215;DHT22;18708;53.124;23.190;2024-03-23T12:22:10;9.60;99.90
32215;DHT22;18708;53.124;23.190;2024-03-23T12:24:36;9.70;99.90
32215;DHT22;18708;53.124;23.190;2024-03-23T12:27:02;9.70;99.90
32215;DHT22;18708;53.124;23.190;2024-03-23T12:29:29;9.70;99.90
32215;DHT22;18708;53.124;23.190;2024-03-23T12:31:58;9.70;99.90
32215;DHT22;18708;53.124;23.190;2024-03-23T12:34:24;9.80;99.90
32215;DHT22;18708;53.124;23.190;2024-03-23T12:36:50;9.80;99.90
32215;DHT22;18708;53.124;23.190;2024-03-23T12:39:15;9.80;99.90
32215;DHT22;18708;53.124;23.190;2024-03-23T12:41:41;9.70;99.90
32215;DHT22;18708;53.124;23.190;2024-03-23T12:44:07;9.70;99.90
32215;DHT22;18708;53.124;23.190;2024-03-23T12:46:34;9.80;99.90
32215;DHT22;18708;53.124;23.190;2024-03-23T12:49:00;9.80;99.90
32215;DHT22;18708;53.124;23.190;2024-03-23T12:51:26;9.70;99.90
32215;DHT22;18708;53.124;23.190;2024-03-23T12:53:51;9.70;99.90
32215;DHT22;18708;53.124;23.190;2024-03-23T12:56:17;9.70;99.90
32215;DHT22;18708;53.124;23.190;2024-03-23T12:58:44;9.70;99.90
32215;DHT22;18708;53.124;23.190;2024-03-23T13:01:09;9.70;99.90
32215;DHT22;18708;53.124;23.190;2024-03-23T13:03:35;9.70;99.90
32215;DHT22;18708;53.124;23.190;2024-03-23T13:06:01;9.70;99.90
32215;DHT22;18708;53.124;23.190;2024-03-23T13:08:27;9.70;99.90
32215;DHT22;18708;53.124;23.190;2024-03-23T13:10:52;9.70;99.90
32215;DHT22;18708;53.124;23.190;2024-03-23T13:13:18;9.70;99.90
32215;DHT22;18708;53.124;23.190;2024-03-23T13:15:50;9.70;99.90
32215;DHT22;18708;53.124;23.190;2024-03-23T13:18:16;9.70;99.90
32215;DHT22;18708;53.124;23.190;2024-03-23T13:20:41;9.80;99.90
32215;DHT22;18708;53.124;23.190;2024-03-23T13:23:07;9.80;99.90
32215;DHT22;18708;53.124;23.190;2024-03-23T13:25:33;9.70;99.90
32215;DHT22;18708;53.124;23.190;2024-03-23T13:27:59;9.80;99.90
32215;DHT22;18708;53.124;23.190;2024-03-23T13:30:24;9.80;99.90
32215;DHT22;18708;53.124;23.190;2024-03-23T13:32:50;9.80;99.90
32215;DHT22;18708;53.124;23.190;2024-03-23T13:35:16;9.80;99.90
32215;DHT22;18708;53.124;23.190;2024-03-23T13:37:43;9.80;99.90
32215;DHT22;18708;53.124;23.190;2024-03-23T13:40:09;9.80;99.90
32215;DHT22;18708;53.124;23.190;2024-03-23T13:42:35;9.90;99.90
32215;DHT22;18708;53.124;23.190;2024-03-23T13:45:01;9.90;99.90
32215;DHT22;18708;53.124;23.190;2024-03-23T13:47:26;9.90;99.90
32215;DHT22;18708;53.124;23.190;2024-03-23T13:49:53;10.00;99.90
32215;DHT22;18708;53.124;23.190;2024-03-23T13:52:19;10.00;99.90
32215;DHT22;18708;53.124;23.190;2024-03-23T13:54:48;10.10;99.90
32215;DHT22;18708;53.124;23.190;2024-03-23T13:57:14;10.20;99.90
32215;DHT22;18708;53.124;23.190;2024-03-23T13:59:40;10.20;99.90
32215;DHT22;18708;53.124;23.190;2024-03-23T14:02:05;10.30;99.90
32215;DHT22;18708;53.124;23.190;2024-03-23T14:04:31;10.30;99.90
32215;DHT22;18708;53.124;23.190;2024-03-23T14:06:57;10.30;99.90
32215;DHT22;18708;53.124;23.190;2024-03-23T14:09:23;10.30;99.90
32215;DHT22;18708;53.124;23.190;2024-03-23T14:11:51;10.40;99.90
32215;DHT22;18708;53.124;23.190;2024-03-23T14:14:17;10.40;99.90
32215;DHT22;18708;53.124;23.190;2024-03-23T14:16:43;10.50;99.90
32215;DHT22;18708;53.124;23.190;2024-03-23T14:19:09;10.60;99.90
32215;DHT22;18708;53.124;23.190;2024-03-23T14:21:35;10.70;99.90
32215;DHT22;18708;53.124;23.190;2024-03-23T14:24:01;10.80;99.90
32215;DHT22;18708;53.124;23.190;2024-03-23T14:26:28;10.90;99.90
32215;DHT22;18708;53.124;23.190;2024-03-23T14:28:53;11.00;99.90
32215;DHT22;18708;53.124;23.190;2024-03-23T14:31:19;10.90;99.90
32215;DHT22;18708;53.124;23.190;2024-03-23T14:33:45;11.00;99.90
32215;DHT22;18708;53.124;23.190;2024-03-23T14:36:15;11.10;99.90
32215;DHT22;18708;53.124;23.190;2024-03-23T14:38:41;11.20;99.90
32215;DHT22;18708;53.124;23.190;2024-03-23T14:41:07;11.10;99.90
32215;DHT22;18708;53.124;23.190;2024-03-23T14:43:33;11.10;99.90
32215;DHT22;18708;53.124;23.190;2024-03-23T14:46:09;11.20;99.90
32215;DHT22;18708;53.124;23.190;2024-03-23T14:48:35;11.10;99.90
32215;DHT22;18708;53.124;23.190;2024-03-23T14:51:02;11.10;99.90
32215;DHT22;18708;53.124;23.190;2024-03-23T14:53:33;11.00;99.90
32215;DHT22;18708;53.124;23.190;2024-03-23T14:56:03;10.80;99.90
32215;DHT22;18708;53.124;23.190;2024-03-23T14:58:30;11.00;99.90
32215;DHT22;18708;53.124;23.190;2024-03-23T15:01:06;10.90;99.90
32215;DHT22;18708;53.124;23.190;2024-03-23T15:03:37;10.90;99.90
32215;DHT22;18708;53.124;23.190;2024-03-23T15:06:05;10.80;99.90
32215;DHT22;18708;53.124;23.190;2024-03-23T15:08:31;10.80;99.90
32215;DHT22;18708;53.124;23.190;2024-03-23T15:11:00;10.80;99.90
32215;DHT22;18708;53.124;23.190;2024-03-23T15:13:26;10.80;99.90
32215;DHT22;18708;53.124;23.190;2024-03-23T15:15:52;10.80;99.90
32215;DHT22;18708;53.124;23.190;2024-03-23T15:18:17;10.80;99.90
32215;DHT22;18708;53.124;23.190;2024-03-23T15:21:01;10.90;99.90
32215;DHT22;18708;53.124;23.190;2024-03-23T15:23:28;10.80;99.90
32215;DHT22;18708;53.124;23.190;2024-03-23T15:26:03;10.80;99.90
32215;DHT22;18708;53.124;23.190;2024-03-23T15:28:29;10.80;99.90
32215;DHT22;18708;53.124;23.190;2024-03-23T15:31:14;10.70;99.90
32215;DHT22;18708;53.124;23.190;2024-03-23T15:33:39;10.70;99.90
32215;DHT22;18708;53.124;23.190;2024-03-23T15:36:05;10.70;99.90
32215;DHT22;18708;53.124;23.190;2024-03-23T15:38:31;10.70;99.90
32215;DHT22;18708;53.124;23.190;2024-03-23T15:40:58;10.60;99.90
32215;DHT22;18708;53.124;23.190;2024-03-23T15:43:24;10.60;99.90
32215;DHT22;18708;53.124;23.190;2024-03-23T15:46:02;10.60;99.90
32215;DHT22;18708;53.124;23.190;2024-03-23T15:48:29;10.60;99.90
32215;DHT22;18708;53.124;23.190;2024-03-23T15:50:57;10.50;99.90
32215;DHT22;18708;53.124;23.190;2024-03-23T15:53:24;10.50;99.90
32215;DHT22;18708;53.124;23.190;2024-03-23T15:55:56;10.50;99.90
32215;DHT22;18708;53.124;23.190;2024-03-23T15:58:22;10.50;99.90
32215;DHT22;18708;53.124;23.190;2024-03-23T16:01:05;10.50;99.90
32215;DHT22;18708;53.124;23.190;2024-03-23T16:03:32;10.40;99.90
32215;DHT22;18708;53.124;23.190;2024-03-23T16:06:00;10.40;99.90
32215;DHT22;18708;53.124;23.190;2024-03-23T16:08:26;10.40;99.90
32215;DHT22;18708;53.124;23.190;2024-03-23T16:10:53;10.40;99.90
32215;DHT22;18708;53.124;23.190;2024-03-23T16:13:20;10.40;99.90
32215;DHT22;18708;53.124;23.190;2024-03-23T16:15:54;10.30;99.90
32215;DHT22;18708;53.124;23.190;2024-03-23T16:18:19;10.30;99.90
32215;DHT22;18708;53.124;23.190;2024-03-23T16:21:05;10.30;99.90
32215;DHT22;18708;53.124;23.190;2024-03-23T16:23:32;10.30;99.90
32215;DHT22;18708;53.124;23.190;2024-03-23T16:25:58;10.20;99.90
32215;DHT22;18708;53.124;23.190;2024-03-23T16:28:32;10.20;99.90
32215;DHT22;18708;53.124;23.190;2024-03-23T16:30:58;10.20;99.90
32215;DHT22;18708;53.124;23.190;2024-03-23T16:33:25;10.20;99.90